createdAt,value
2018-12-05T00:13:00.330Z,3.8
2018-12-05T00:28:12.322Z,3.8
2018-12-05T00:43:24.148Z,3.8
2018-12-05T00:58:36.269Z,3.8
2018-12-05T01:13:48.092Z,3.7
2018-12-05T01:29:00.011Z,3.7
2018-12-05T01:44:12.019Z,3.6
2018-12-05T01:59:23.709Z,3.7
2018-12-05T02:14:30.670Z,3.6
2018-12-05T02:29:47.852Z,3.5
2018-12-05T02:44:59.637Z,3.5
2018-12-05T03:00:11.180Z,3.4
2018-12-05T03:15:23.116Z,3.4
2018-12-05T03:30:35.080Z,3.5
2018-12-05T03:45:46.581Z,3.4
2018-12-05T04:00:59.132Z,3.3
2018-12-05T04:16:10.279Z,3.1
2018-12-05T04:31:19.209Z,3
2018-12-05T04:46:33.369Z,2.8
2018-12-05T05:01:45.005Z,2.7
2018-12-05T05:16:57.035Z,2.6
2018-12-05T05:32:00.616Z,2.5
2018-12-05T05:47:19.602Z,2.5
2018-12-05T06:02:30.916Z,2.3
2018-12-05T06:17:42.312Z,2.1
2018-12-05T06:32:53.687Z,2
2018-12-05T06:48:05.523Z,2
2018-12-05T07:03:16.304Z,2
2018-12-05T07:18:27.846Z,2
2018-12-05T07:33:39.124Z,1.7
2018-12-05T07:48:44.928Z,1.7
2018-12-05T08:04:01.471Z,1.7
2018-12-05T08:19:12.774Z,1.8
2018-12-05T08:34:24.367Z,2.2
2018-12-05T08:49:35.663Z,2.6
2018-12-05T09:04:47.334Z,2.8
2018-12-05T09:19:59.017Z,3.3
2018-12-05T09:35:11.179Z,3.6
2018-12-05T09:50:23.226Z,4.7
2018-12-05T10:05:31.908Z,4.8
2018-12-05T10:20:55.778Z,5.3
2018-12-05T10:36:01.978Z,5.7
2018-12-05T10:51:17.602Z,6.1
2018-12-05T11:06:33.129Z,6.8
2018-12-05T11:21:41.803Z,7.3
2018-12-05T11:37:08.776Z,7.8
2018-12-05T11:52:25.280Z,8.2
2018-12-05T12:07:41.005Z,8.7
2018-12-05T12:22:57.385Z,9
2018-12-05T12:38:16.072Z,8.8
2018-12-05T12:53:23.414Z,9
2018-12-05T13:08:50.479Z,8.8
2018-12-05T13:24:12.584Z,8.9
2018-12-05T13:39:29.157Z,8.6
2018-12-05T13:54:44.943Z,8.3
2018-12-05T14:10:00.723Z,8.2
2018-12-05T14:25:04.241Z,7.9
2018-12-05T14:40:29.494Z,7.4
2018-12-05T14:55:43.103Z,7.1
2018-12-05T15:10:56.121Z,6.5
2018-12-05T15:26:08.816Z,6
2018-12-05T15:41:14.954Z,5.4
2018-12-05T15:56:33.821Z,5.2
2018-12-05T16:11:46.352Z,4.8
2018-12-05T16:26:58.578Z,5.4
2018-12-05T16:42:10.729Z,4.5
2018-12-05T16:57:23.318Z,4
2018-12-05T17:12:34.910Z,3.7
2018-12-05T17:27:46.997Z,3.4
2018-12-05T17:42:58.851Z,3.2
2018-12-05T17:58:05.743Z,3
2018-12-05T18:13:22.221Z,3.3
2018-12-05T18:28:34.016Z,2.8
2018-12-05T18:43:45.695Z,2.6
2018-12-05T18:58:57.176Z,2.5
2018-12-05T19:14:08.564Z,2.5
2018-12-05T19:29:19.913Z,2.4
2018-12-05T19:44:31.364Z,2.5
2018-12-05T19:59:42.867Z,2.6
2018-12-05T20:14:52.501Z,2.5
2018-12-05T20:30:06.081Z,2.6
2018-12-05T20:45:17.820Z,2.7
2018-12-05T21:00:29.346Z,3.5
2018-12-05T21:15:32.511Z,3.3
2018-12-05T21:30:53.091Z,3.1
2018-12-05T21:46:04.755Z,3.1
2018-12-05T22:01:16.828Z,3.1
2018-12-05T22:16:28.255Z,3.2
2018-12-05T22:31:38.485Z,3.2
2018-12-05T22:46:51.839Z,3.3
2018-12-05T23:02:03.763Z,3.4
2018-12-05T23:17:15.512Z,3.4
2018-12-05T23:32:19.554Z,3.5
2018-12-05T23:47:39.274Z,3.7
